Accueil
METAR-TAF:

METAR-TAF

Aéroports :

Buochs, Suisse

latitude: 46-58-28N, longitude: 8-23-49E, altitude: 449 m

Observation

Le bulletin a été fait il y a 35 minutes, à 18:50 UTC
Vent 1 kt de direction variable
Température 13°C
Humidité 88%
Pression 1023 hPa
Visibilité: 4400 m
Ciel couvert à une hauteur de 1400 ft
brume

METAR: LSZC 191850Z AUTO VRB01KT 4400 BR OVC014 13/11 Q1023

Heure: 21:25 (19:25 UTC)

Prévision

Le bulletin a été fait il y a 23 minutes, à 19:02 UTC
Prévision valable du 19 à 19 UTC au 19 à 24 UTC
Vent 1 kt de direction variable
Visibilité: 4400 m
Ciel couvert à une hauteur de 1400 ft
brume
Probabilité 30%
du 19 à 21 UTC au 19 à 24 UTC
Visibilité: 2500 m
Ciel couvert à une hauteur de 900 ft
bancs de brouillard

TAF: LSZC 191902Z 1919/1924 VRB01KT 4400 BR OVC014 PROB30 1921/1924 2500 BCFG OVC009

Observations et prévisions météorologiques de plus de 4000 aéroports (messages METAR et TAF).

Les stations disponibles sont représentées par des disques jaunes et rouges sur la carte.

Passer la souris dessus pour voir le nom de la station.

Cliquer dessus pour voir les observations et prévisions météorologiques.

Pour changer de carte: cliquez sur les boutons verts avec une croix noire pour zoomer, sur le bouton vert avec un tiret pour effectuer un zoom arrière, ou sur les flèches vertes pour les cartes adjacentes.


METAR-TAF: